METAR Data
IDs: Format: Raw Decoded Include TAF

Data at: 2325 UTC 26 Feb 2020

METAR for:MSSS (Ilopango Arpt, --, ES)
Text:MSSS 262250Z 20010KT 9999 FEW040 26/20 Q1014 A2997 8000W
Temperature: 26.0°C ( 79°F)
Dewpoint: 20.0°C ( 68°F) [RH = 70%]
Pressure (altimeter):29.94 inches Hg (1014.0 mb)
Winds:from the SSW (200 degrees) at 12 MPH (10 knots; 5.1 m/s)
Visibility:6 or more sm (10+ km)
Ceiling:at least 12,000 feet AGL
Clouds: few clouds at 4000 feet AGL

TAF for:MSSS (Ilopango Arpt, --, ES) issued at 2125 UTC 26 Feb 2020
Text:TAF MSSS 262125Z 2700/2724 16003KT 9999 FEW043 TX31/2718Z TN18/2712Z
Forecast period:0000 to 0600 UTC 27 February 2020
Forecast type:FROM: standard forecast or significant change
Winds:from the SSE (160 degrees) at 3 MPH (3 knots; 1.5 m/s)
Visibility:6 or more sm (10+ km)
Ceiling:at least 12,000 feet AGL
Clouds: few clouds at 4300 feet AGL
Text:FM270600 36012G25KT CAVOK
Forecast period:0600 UTC 27 February 2020 to 0000 UTC 28 February 2020
Forecast type:FROM: standard forecast or significant change
Winds:from the N (360 degrees) at 14 MPH (12 knots; 6.2 m/s) gusting to 29 MPH (25 knots; 12.9 m/s)
Visibility:6 or more sm (10+ km)
Clouds:missing
Weather:NSW (no significant weather)